• Join FlightAware (Why Join?)
  • Login
  • US Flag 
12:00AM EDT


 

Airport Tracker/Info


-or-


 

Live Flight TrackerFlight Track Log ✈ EGF3796 ✈ 05-Jan-2014 ✈ KBTR - KDFW

Flight Track Log - Related Links

Times and Time Zones

All times are in EST time to prevent confusion due to time zone crossing. See the EGF3796 flight status page for this flight to view local times or setup timezone preferences in your user account.

Time Position Orientation Groundspeed Altitude Reporting Facility
EST Latitude Longitude Course Direction KTS MPH feet Rate Location/Type
03:56PM 30.6485 -91.4165 319° Northwest  Level Estimated
03:56PM 30.4283 -91.2142 204° Southwest 191 220 5,800  Level Houston Center
03:57PM 30.6869 -91.5056 323° Northwest  Level Estimated
03:57PM 30.3781 -91.2406 204° Southwest 196 226 8,600  Level Houston Center
03:58PM 30.7702 -91.5287 347° North  Level FlightAware Approximate
03:58PM 30.3228 -91.2617 198° South 204 235 10,800  Level Houston Center
03:59PM 30.8076 -91.6184 289° West  Level Estimated
03:59PM 30.2608 -91.2833 197° South 227 261 12,800  Level Houston Center
04:00PM 30.8709 -91.6944 314° West  Level FlightAware Approximate
04:00PM 30.2414 -91.3600 254° West 217 250 15,400  Level Houston Center
04:01PM 30.2883 -91.4153 315° West 239 275 17,500 1,560 Climbing Houston Center
04:02PM 30.3314 -91.4814 307° West 256 295 18,700 1,080 Climbing Houston Center
04:03PM 30.3786 -91.5592 305° West 291 335 19,800 960 Climbing Houston Center
04:04PM 30.4314 -91.6450 306° West 321 369 20,800 840 Climbing Houston Center
04:05PM 30.4967 -91.7483 306° West 343 395 21,600 540 Climbing Houston Center
04:06PM 30.5561 -91.8436 306° West 359 413 22,000 180 Climbing Houston Center
04:07PM 30.6169 -91.9408 306° West 371 427 22,000  Level Houston Center
04:08PM 30.6772 -92.0386 306° West 370 426 22,000  Level Houston Center
04:09PM 30.7367 -92.1361 305° West 370 426 22,000  Level Houston Center
04:10PM 30.8058 -92.2500 305° West 361 415 22,000  Level Houston Center
04:11PM 30.8628 -92.3417 306° West 351 404 22,000  Level Houston Center
04:12PM 30.9194 -92.4344 305° West 351 404 22,000  Level Houston Center
04:13PM 30.9747 -92.5250 305° West 345 397 22,000  Level Houston Center
04:14PM 31.0297 -92.6167 305° West 342 394 22,000  Level Houston Center
04:15PM 31.0856 -92.7081 306° West 342 394 22,000  Level Houston Center
04:17PM 31.1394 -92.7986 305° West 338 389 22,000  Level Houston Center
04:18PM 31.2050 -92.9058 306° West 337 388 22,000  Level Houston Center
04:19PM 31.2586 -92.9950 305° West 334 384 22,000  Level Houston Center
04:20PM 31.3097 -93.0819 305° West 327 376 22,000  Level Houston Center
04:21PM 31.3631 -93.1708 305° West 331 381 22,000  Level Houston Center
04:22PM 31.4156 -93.2586 305° West 329 379 22,000  Level Houston Center
04:23PM 31.4672 -93.3469 304° West 328 377 22,000  Level Houston Center
04:24PM 31.5197 -93.4331 306° West 325 374 22,000  Level Houston Center
04:25PM 31.5808 -93.5375 305° West 323 372 22,000  Level Houston Center
04:26PM 31.6328 -93.6247 305° West 321 369 22,000  Level Houston Center
04:27PM 31.6625 -93.7178 291° West 303 349 22,000  Level Houston Center
04:28PM 31.6833 -93.8128 284° West 301 346 22,000  Level Houston Center
04:29PM 31.7036 -93.9081 284° West 301 346 22,000  Level Houston Center
04:30PM 31.7278 -94.0219 284° West 300 345 22,000  Level Houston Center
04:31PM 31.7492 -94.1158 285° West 299 344 22,000  Level Houston Center
04:32PM 31.7692 -94.2089 284° West 295 339 22,000  Level Houston Center
04:33PM 31.7892 -94.3022 284° West 295 339 22,000  Level Houston Center
04:34PM 31.8086 -94.3944 284° West 293 337 22,000  Level Houston Center
04:35PM 31.8294 -94.4856 285° West 291 335 22,000  Level Houston Center
04:36PM 31.8525 -94.5969 284° West 293 337 22,000  Level Houston Center
04:37PM 31.8722 -94.6903 284° West 294 338 22,000  Level Houston Center
04:38PM 31.8919 -94.7822 284° West 292 336 22,000  Level Houston Center
04:40PM 31.9228 -94.9308 284° West 290 334 22,000  Level Fort Worth Center
04:41PM 31.9425 -95.0228 284° West 291 335 22,000  Level Fort Worth Center
04:42PM 31.9606 -95.1117 283° West 284 327 22,000  Level Fort Worth Center
04:43PM 31.9564 -95.2011 267° West 295 339 22,000  Level Fort Worth Center
04:44PM 31.8869 -95.2561 214° Southwest 310 357 22,000  Level Fort Worth Center
04:45PM 31.8608 -95.3417 250° West 279 321 22,000  Level Fort Worth Center
04:46PM 31.8661 -95.4497 273° West 288 331 22,000  Level Fort Worth Center
04:47PM 31.9003 -95.5381 295° West 295 339 22,000  Level Fort Worth Center
04:48PM 31.9372 -95.6242 297° West 297 342 22,000  Level Fort Worth Center
04:49PM 31.9778 -95.7214 296° West 297 342 22,000  Level Fort Worth Center
04:50PM 32.0147 -95.8086 297° West 297 342 22,000 -60 Level Fort Worth Center
04:51PM 32.0517 -95.8967 296° West 299 344 21,900 -300 Descending Fort Worth Center
04:52PM 32.0889 -95.9864 296° West 304 350 21,500 -540 Descending Fort Worth Center
04:53PM 32.1281 -96.0781 297° West 312 359 20,800 -840 Descending Fort Worth Center
04:54PM 32.1675 -96.1733 296° West 322 371 19,800 -1,800 Descending Fort Worth Center
04:55PM 32.2303 -96.2722 307° West 323 372 17,200 -2,940 Descending Fort Worth Center
04:56PM 32.2994 -96.3508 316° Northwest 319 367 13,800 -2,880 Descending Fort Worth Center
04:57PM 32.3592 -96.4222 315° West 304 350 11,300 -2,040 Descending Fort Worth Center
04:58PM 32.4133 -96.4850 316° Northwest 274 315 9,700 -1,320 Descending Fort Worth Center
04:59PM 32.4628 -96.5450 314° West 235 270 8,600 -1,020 Descending Fort Worth Center
05:00PM 32.5061 -96.5967 315° West 222 255 7,700 -720 Descending Fort Worth Center
05:02PM 32.5525 -96.6522 315° West 222 255 7,200 -420 Descending Fort Worth Center
05:03PM 32.6047 -96.6989 323° Northwest 235 270 6,900 -420 Descending Fort Worth Center
05:03PM 32.6333 -96.7167 332° Northwest 230 265 6,600 -600 Descending Dallas / Fort Worth TRACON
05:04PM 32.6833 -96.7667 320° Northwest 219 252 6,000 -600 Descending Dallas / Fort Worth TRACON
05:05PM 32.7333 -96.8000 331° Northwest 181 208 5,400 -660 Descending Dallas / Fort Worth TRACON
05:06PM 32.7667 -96.8500 308° West 187 215 4,700 -840 Descending Dallas / Fort Worth TRACON
05:07PM 32.8000 -96.8833 320° Northwest 184 212 3,800 -1,080 Descending Dallas / Fort Worth TRACON
05:08PM 32.8333 -96.9333 308° West 169 194 2,500 -1,200 Descending Dallas / Fort Worth TRACON
05:09PM 32.8667 -96.9667 320° Northwest 150 173 1,300 -1,140 Descending Dallas / Fort Worth TRACON